sensor_id;sensor_type;location;lat;lon;timestamp;pressure;altitude;pressure_sealevel;temperature;humidity
73171;BME280;61381;50.118;19.962;2023-07-09T00:02:33;98881.13;;;13.97;100.00
73171;BME280;61381;50.118;19.962;2023-07-09T00:07:36;98880.31;;;13.83;100.00
73171;BME280;61381;50.118;19.962;2023-07-09T00:12:37;98885.81;;;14.05;100.00
73171;BME280;61381;50.118;19.962;2023-07-09T00:17:38;98886.72;;;14.15;100.00
73171;BME280;61381;50.118;19.962;2023-07-09T00:22:41;98891.81;;;14.16;100.00
73171;BME280;61381;50.118;19.962;2023-07-09T00:27:43;98894.69;;;13.92;100.00
73171;BME280;61381;50.118;19.962;2023-07-09T00:32:44;98889.00;;;13.61;100.00
73171;BME280;61381;50.118;19.962;2023-07-09T00:37:46;98893.91;;;13.40;100.00
73171;BME280;61381;50.118;19.962;2023-07-09T00:42:49;98891.00;;;13.17;100.00
73171;BME280;61381;50.118;19.962;2023-07-09T00:47:53;98894.25;;;13.14;100.00
73171;BME280;61381;50.118;19.962;2023-07-09T00:52:58;98895.28;;;12.99;100.00
73171;BME280;61381;50.118;19.962;2023-07-09T00:58:01;98887.78;;;12.96;100.00
73171;BME280;61381;50.118;19.962;2023-07-09T01:03:04;98883.03;;;12.88;100.00
73171;BME280;61381;50.118;19.962;2023-07-09T01:08:07;98877.75;;;12.82;100.00
73171;BME280;61381;50.118;19.962;2023-07-09T01:13:08;98882.16;;;12.73;100.00
73171;BME280;61381;50.118;19.962;2023-07-09T01:18:09;98869.88;;;12.67;100.00
73171;BME280;61381;50.118;19.962;2023-07-09T01:23:12;98882.25;;;12.68;100.00
73171;BME280;61381;50.118;19.962;2023-07-09T01:28:13;98875.16;;;12.53;100.00
73171;BME280;61381;50.118;19.962;2023-07-09T01:33:14;98868.88;;;12.39;100.00
73171;BME280;61381;50.118;19.962;2023-07-09T01:38:16;98862.53;;;12.29;100.00
73171;BME280;61381;50.118;19.962;2023-07-09T01:43:18;98866.41;;;12.18;100.00
73171;BME280;61381;50.118;19.962;2023-07-09T01:48:19;98869.28;;;12.03;100.00
73171;BME280;61381;50.118;19.962;2023-07-09T01:53:24;98870.63;;;12.00;100.00
73171;BME280;61381;50.118;19.962;2023-07-09T01:58:27;98876.81;;;12.01;100.00
73171;BME280;61381;50.118;19.962;2023-07-09T02:03:28;98888.13;;;11.98;100.00
73171;BME280;61381;50.118;19.962;2023-07-09T02:08:30;98882.13;;;12.06;100.00
73171;BME280;61381;50.118;19.962;2023-07-09T02:13:31;98890.59;;;12.18;100.00
73171;BME280;61381;50.118;19.962;2023-07-09T02:18:32;98892.44;;;12.23;100.00
73171;BME280;61381;50.118;19.962;2023-07-09T02:23:34;98893.50;;;12.22;100.00
73171;BME280;61381;50.118;19.962;2023-07-09T02:28:35;98891.66;;;12.17;100.00
73171;BME280;61381;50.118;19.962;2023-07-09T02:33:36;98902.16;;;12.43;100.00
73171;BME280;61381;50.118;19.962;2023-07-09T02:38:38;98905.50;;;12.54;100.00
73171;BME280;61381;50.118;19.962;2023-07-09T02:43:39;98910.09;;;12.53;100.00
73171;BME280;61381;50.118;19.962;2023-07-09T02:48:40;98913.06;;;12.52;100.00
73171;BME280;61381;50.118;19.962;2023-07-09T02:53:43;98913.88;;;12.52;100.00
73171;BME280;61381;50.118;19.962;2023-07-09T02:58:44;98920.78;;;12.58;100.00
73171;BME280;61381;50.118;19.962;2023-07-09T03:03:45;98915.88;;;12.65;100.00
73171;BME280;61381;50.118;19.962;2023-07-09T03:08:47;98919.44;;;12.80;100.00
73171;BME280;61381;50.118;19.962;2023-07-09T03:13:48;98933.34;;;12.87;100.00
73171;BME280;61381;50.118;19.962;2023-07-09T03:18:49;98929.50;;;12.93;100.00
73171;BME280;61381;50.118;19.962;2023-07-09T03:23:52;98932.50;;;13.11;100.00
73171;BME280;61381;50.118;19.962;2023-07-09T03:28:54;98937.31;;;13.33;100.00
73171;BME280;61381;50.118;19.962;2023-07-09T03:33:55;98933.34;;;13.49;100.00
73171;BME280;61381;50.118;19.962;2023-07-09T03:38:57;98935.41;;;13.71;100.00
73171;BME280;61381;50.118;19.962;2023-07-09T03:43:58;98938.03;;;14.09;100.00
73171;BME280;61381;50.118;19.962;2023-07-09T03:48:59;98935.16;;;14.34;100.00
73171;BME280;61381;50.118;19.962;2023-07-09T03:54:02;98936.47;;;15.06;100.00
73171;BME280;61381;50.118;19.962;2023-07-09T03:59:03;98941.53;;;16.03;100.00
73171;BME280;61381;50.118;19.962;2023-07-09T04:04:04;98945.78;;;19.82;90.81
73171;BME280;61381;50.118;19.962;2023-07-09T04:09:06;98952.81;;;22.41;71.91
73171;BME280;61381;50.118;19.962;2023-07-09T04:14:07;98961.91;;;23.48;66.93
73171;BME280;61381;50.118;19.962;2023-07-09T04:19:08;98972.16;;;25.33;59.26
73171;BME280;61381;50.118;19.962;2023-07-09T04:24:11;98981.28;;;26.46;54.89
73171;BME280;61381;50.118;19.962;2023-07-09T04:29:12;98978.91;;;25.12;54.11
73171;BME280;61381;50.118;19.962;2023-07-09T04:34:13;98978.00;;;26.74;52.09
73171;BME280;61381;50.118;19.962;2023-07-09T04:39:16;98978.91;;;27.55;49.51
73171;BME280;61381;50.118;19.962;2023-07-09T04:44:17;98985.03;;;27.27;49.59
73171;BME280;61381;50.118;19.962;2023-07-09T04:49:17;98984.50;;;27.00;48.92
73171;BME280;61381;50.118;19.962;2023-07-09T04:54:20;98993.72;;;28.32;46.17
73171;BME280;61381;50.118;19.962;2023-07-09T04:59:21;98996.38;;;27.96;47.48
73171;BME280;61381;50.118;19.962;2023-07-09T05:04:22;98992.91;;;28.27;45.86
73171;BME280;61381;50.118;19.962;2023-07-09T05:09:24;98999.97;;;29.37;43.91
73171;BME280;61381;50.118;19.962;2023-07-09T05:14:26;99000.03;;;29.22;43.03
73171;BME280;61381;50.118;19.962;2023-07-09T05:19:27;99002.03;;;30.14;41.81
73171;BME280;61381;50.118;19.962;2023-07-09T05:24:30;98995.31;;;28.83;45.00
73171;BME280;61381;50.118;19.962;2023-07-09T05:29:31;98998.59;;;29.95;44.86
73171;BME280;61381;50.118;19.962;2023-07-09T05:34:32;99007.81;;;30.45;42.34
73171;BME280;61381;50.118;19.962;2023-07-09T05:39:34;99011.88;;;30.18;43.19
73171;BME280;61381;50.118;19.962;2023-07-09T05:44:35;99007.22;;;30.68;42.05
73171;BME280;61381;50.118;19.962;2023-07-09T05:49:37;99014.44;;;31.41;40.92
73171;BME280;61381;50.118;19.962;2023-07-09T05:54:40;99022.47;;;31.70;40.29
73171;BME280;61381;50.118;19.962;2023-07-09T05:59:41;99019.00;;;31.59;40.03
73171;BME280;61381;50.118;19.962;2023-07-09T06:04:42;99025.81;;;30.64;41.34
73171;BME280;61381;50.118;19.962;2023-07-09T06:09:44;99020.38;;;31.78;40.06
73171;BME280;61381;50.118;19.962;2023-07-09T06:14:46;99026.41;;;31.69;39.79
73171;BME280;61381;50.118;19.962;2023-07-09T06:19:46;99020.31;;;31.81;39.61
73171;BME280;61381;50.118;19.962;2023-07-09T06:24:49;99024.97;;;32.74;38.41
73171;BME280;61381;50.118;19.962;2023-07-09T06:29:50;99024.19;;;32.97;37.95
73171;BME280;61381;50.118;19.962;2023-07-09T06:34:51;99029.16;;;32.58;37.04
73171;BME280;61381;50.118;19.962;2023-07-09T06:39:53;99026.63;;;32.95;36.52
73171;BME280;61381;50.118;19.962;2023-07-09T06:44:54;99027.69;;;32.77;36.88
73171;BME280;61381;50.118;19.962;2023-07-09T06:49:55;99022.97;;;31.92;38.15
73171;BME280;61381;50.118;19.962;2023-07-09T06:54:58;99018.81;;;30.48;40.23
73171;BME280;61381;50.118;19.962;2023-07-09T06:59:59;99014.03;;;30.56;41.72
73171;BME280;61381;50.118;19.962;2023-07-09T07:05:00;99008.81;;;31.83;41.60
73171;BME280;61381;50.118;19.962;2023-07-09T07:10:03;99012.72;;;33.38;37.91
73171;BME280;61381;50.118;19.962;2023-07-09T07:15:05;99012.00;;;33.14;39.14
73171;BME280;61381;50.118;19.962;2023-07-09T07:20:08;99018.09;;;33.69;37.72
73171;BME280;61381;50.118;19.962;2023-07-09T07:25:11;99016.75;;;34.14;36.46
73171;BME280;61381;50.118;19.962;2023-07-09T07:30:12;99014.91;;;34.27;37.54
73171;BME280;61381;50.118;19.962;2023-07-09T07:35:14;99014.16;;;33.87;39.14
73171;BME280;61381;50.118;19.962;2023-07-09T07:40:16;99006.56;;;33.07;40.38
73171;BME280;61381;50.118;19.962;2023-07-09T07:45:17;99016.47;;;34.78;37.22
73171;BME280;61381;50.118;19.962;2023-07-09T07:50:18;99017.00;;;34.40;36.56
73171;BME280;61381;50.118;19.962;2023-07-09T07:55:21;99019.41;;;35.04;37.39
73171;BME280;61381;50.118;19.962;2023-07-09T08:00:22;99012.84;;;35.27;34.56
73171;BME280;61381;50.118;19.962;2023-07-09T08:05:23;99006.66;;;34.04;37.17
73171;BME280;61381;50.118;19.962;2023-07-09T08:10:25;99006.13;;;34.78;36.66
73171;BME280;61381;50.118;19.962;2023-07-09T08:15:27;99003.78;;;35.52;35.32
73171;BME280;61381;50.118;19.962;2023-07-09T08:20:28;99004.19;;;34.42;36.54
73171;BME280;61381;50.118;19.962;2023-07-09T08:25:30;98997.19;;;33.61;35.55
73171;BME280;61381;50.118;19.962;2023-07-09T08:30:32;98995.91;;;33.86;33.84
73171;BME280;61381;50.118;19.962;2023-07-09T08:35:33;98994.31;;;33.28;35.63
73171;BME280;61381;50.118;19.962;2023-07-09T08:40:38;98996.53;;;33.93;35.60
73171;BME280;61381;50.118;19.962;2023-07-09T08:45:47;98990.19;;;34.95;32.39
73171;BME280;61381;50.118;19.962;2023-07-09T08:50:54;98988.66;;;34.08;33.74
73171;BME280;61381;50.118;19.962;2023-07-09T08:55:57;98984.25;;;34.11;33.22
73171;BME280;61381;50.118;19.962;2023-07-09T09:01:01;98975.56;;;33.32;36.11
73171;BME280;61381;50.118;19.962;2023-07-09T09:06:10;98974.91;;;33.85;34.64
73171;BME280;61381;50.118;19.962;2023-07-09T09:11:17;98994.53;;;34.47;29.78
73171;BME280;61381;50.118;19.962;2023-07-09T09:16:22;98991.63;;;34.18;29.60
73171;BME280;61381;50.118;19.962;2023-07-09T09:21:27;98981.38;;;33.58;31.76
73171;BME280;61381;50.118;19.962;2023-07-09T09:26:34;98989.09;;;34.07;29.11
73171;BME280;61381;50.118;19.962;2023-07-09T09:31:35;98974.91;;;33.45;28.36
73171;BME280;61381;50.118;19.962;2023-07-09T09:36:37;98976.38;;;33.09;33.91
73171;BME280;61381;50.118;19.962;2023-07-09T09:41:39;98983.03;;;32.92;27.62
73171;BME280;61381;50.118;19.962;2023-07-09T09:46:42;98989.81;;;33.34;28.79
73171;BME280;61381;50.118;19.962;2023-07-09T09:51:44;98978.16;;;32.25;27.70
73171;BME280;61381;50.118;19.962;2023-07-09T09:56:48;98979.88;;;33.13;25.28
73171;BME280;61381;50.118;19.962;2023-07-09T10:01:56;98985.53;;;32.59;26.41
73171;BME280;61381;50.118;19.962;2023-07-09T10:07:01;98985.41;;;31.57;28.92
73171;BME280;61381;50.118;19.962;2023-07-09T10:12:13;98973.63;;;30.66;29.27
73171;BME280;61381;50.118;19.962;2023-07-09T10:17:20;98983.03;;;30.75;30.69
73171;BME280;61381;50.118;19.962;2023-07-09T10:22:37;98965.44;;;31.38;28.73
73171;BME280;61381;50.118;19.962;2023-07-09T10:27:52;98968.88;;;31.11;31.18
73171;BME280;61381;50.118;19.962;2023-07-09T10:33:05;98968.09;;;31.45;31.91
73171;BME280;61381;50.118;19.962;2023-07-09T10:38:22;98969.09;;;31.28;31.51
73171;BME280;61381;50.118;19.962;2023-07-09T10:43:33;98963.75;;;30.12;32.11
73171;BME280;61381;50.118;19.962;2023-07-09T10:48:41;98963.47;;;30.97;32.36
73171;BME280;61381;50.118;19.962;2023-07-09T10:53:44;98959.31;;;31.20;32.16
73171;BME280;61381;50.118;19.962;2023-07-09T10:58:50;98950.97;;;31.23;33.47
73171;BME280;61381;50.118;19.962;2023-07-09T11:03:56;98956.66;;;30.08;33.14
73171;BME280;61381;50.118;19.962;2023-07-09T11:09:01;98959.41;;;29.05;33.91
73171;BME280;61381;50.118;19.962;2023-07-09T11:14:08;98956.06;;;29.71;32.38
73171;BME280;61381;50.118;19.962;2023-07-09T11:19:15;98948.47;;;29.93;31.76
73171;BME280;61381;50.118;19.962;2023-07-09T11:24:30;98950.13;;;29.76;32.10
73171;BME280;61381;50.118;19.962;2023-07-09T11:29:33;98942.00;;;29.37;33.54
73171;BME280;61381;50.118;19.962;2023-07-09T11:34:34;98931.16;;;29.78;33.47
73171;BME280;61381;50.118;19.962;2023-07-09T11:39:47;98934.13;;;30.13;32.64
73171;BME280;61381;50.118;19.962;2023-07-09T11:44:50;98928.13;;;30.21;32.25
73171;BME280;61381;50.118;19.962;2023-07-09T11:49:56;98929.94;;;29.90;32.56
73171;BME280;61381;50.118;19.962;2023-07-09T11:55:02;98927.84;;;30.09;36.14
73171;BME280;61381;50.118;19.962;2023-07-09T12:00:07;98925.59;;;29.89;34.39
73171;BME280;61381;50.118;19.962;2023-07-09T12:05:29;98922.84;;;29.89;35.50
73171;BME280;61381;50.118;19.962;2023-07-09T12:10:34;98922.88;;;29.78;35.36
73171;BME280;61381;50.118;19.962;2023-07-09T12:15:38;98908.69;;;29.83;33.60
73171;BME280;61381;50.118;19.962;2023-07-09T12:20:41;98907.63;;;30.19;32.13
73171;BME280;61381;50.118;19.962;2023-07-09T12:25:47;98899.63;;;30.32;31.83
73171;BME280;61381;50.118;19.962;2023-07-09T12:30:51;98900.09;;;30.23;33.41
73171;BME280;61381;50.118;19.962;2023-07-09T12:35:55;98886.59;;;30.32;30.97
73171;BME280;61381;50.118;19.962;2023-07-09T12:40:59;98886.16;;;31.79;29.77
73171;BME280;61381;50.118;19.962;2023-07-09T12:46:02;98883.75;;;30.85;32.54
73171;BME280;61381;50.118;19.962;2023-07-09T12:51:07;98883.28;;;30.52;33.83
73171;BME280;61381;50.118;19.962;2023-07-09T12:56:12;98882.34;;;30.20;33.46
73171;BME280;61381;50.118;19.962;2023-07-09T13:01:16;98871.34;;;30.13;32.27
73171;BME280;61381;50.118;19.962;2023-07-09T13:06:26;98868.06;;;30.29;34.21
73171;BME280;61381;50.118;19.962;2023-07-09T13:11:32;98864.75;;;30.49;35.05
73171;BME280;61381;50.118;19.962;2023-07-09T13:16:39;98860.19;;;31.07;32.93
73171;BME280;61381;50.118;19.962;2023-07-09T13:21:40;98872.88;;;31.36;33.38
73171;BME280;61381;50.118;19.962;2023-07-09T13:26:41;98861.78;;;31.05;32.14
73171;BME280;61381;50.118;19.962;2023-07-09T13:31:44;98861.13;;;31.28;31.21
73171;BME280;61381;50.118;19.962;2023-07-09T13:36:46;98858.25;;;31.04;31.71
73171;BME280;61381;50.118;19.962;2023-07-09T13:41:49;98848.69;;;31.71;31.56
73171;BME280;61381;50.118;19.962;2023-07-09T13:46:51;98850.25;;;31.72;32.32
73171;BME280;61381;50.118;19.962;2023-07-09T13:51:56;98861.94;;;31.56;31.47
73171;BME280;61381;50.118;19.962;2023-07-09T13:56:57;98849.25;;;31.27;33.50
73171;BME280;61381;50.118;19.962;2023-07-09T14:02:00;98857.28;;;31.18;31.65
73171;BME280;61381;50.118;19.962;2023-07-09T14:07:01;98857.09;;;31.02;32.56
73171;BME280;61381;50.118;19.962;2023-07-09T14:12:02;98855.50;;;31.04;30.92
73171;BME280;61381;50.118;19.962;2023-07-09T14:17:04;98850.09;;;31.24;30.26
73171;BME280;61381;50.118;19.962;2023-07-09T14:22:20;98857.75;;;30.75;32.22
73171;BME280;61381;50.118;19.962;2023-07-09T14:27:22;98844.03;;;30.22;33.86
73171;BME280;61381;50.118;19.962;2023-07-09T14:32:32;98847.41;;;30.45;33.49
73171;BME280;61381;50.118;19.962;2023-07-09T14:37:33;98845.13;;;31.08;31.83
73171;BME280;61381;50.118;19.962;2023-07-09T14:42:34;98845.00;;;30.85;30.73
73171;BME280;61381;50.118;19.962;2023-07-09T14:47:36;98833.34;;;30.24;31.47
73171;BME280;61381;50.118;19.962;2023-07-09T14:52:38;98843.31;;;30.60;31.61
73171;BME280;61381;50.118;19.962;2023-07-09T14:57:41;98839.31;;;30.65;32.21
73171;BME280;61381;50.118;19.962;2023-07-09T15:02:44;98825.06;;;30.66;35.45
73171;BME280;61381;50.118;19.962;2023-07-09T15:07:45;98817.25;;;30.57;34.87
73171;BME280;61381;50.118;19.962;2023-07-09T15:12:46;98814.59;;;30.81;32.69
73171;BME280;61381;50.118;19.962;2023-07-09T15:17:49;98817.63;;;30.94;32.35
73171;BME280;61381;50.118;19.962;2023-07-09T15:22:51;98812.31;;;29.93;32.41
73171;BME280;61381;50.118;19.962;2023-07-09T15:27:53;98808.28;;;30.01;35.06
73171;BME280;61381;50.118;19.962;2023-07-09T15:32:57;98802.72;;;30.04;33.57
73171;BME280;61381;50.118;19.962;2023-07-09T15:37:58;98800.47;;;29.92;34.57
73171;BME280;61381;50.118;19.962;2023-07-09T15:43:05;98793.06;;;29.82;35.67
73171;BME280;61381;50.118;19.962;2023-07-09T15:48:12;98787.53;;;29.22;35.15
73171;BME280;61381;50.118;19.962;2023-07-09T15:53:21;98792.31;;;29.04;37.09
73171;BME280;61381;50.118;19.962;2023-07-09T15:58:24;98787.88;;;29.31;36.11
73171;BME280;61381;50.118;19.962;2023-07-09T16:03:27;98784.28;;;29.94;37.78
73171;BME280;61381;50.118;19.962;2023-07-09T16:08:28;98786.69;;;29.88;35.15
73171;BME280;61381;50.118;19.962;2023-07-09T16:13:29;98783.47;;;29.97;35.86
73171;BME280;61381;50.118;19.962;2023-07-09T16:18:32;98779.22;;;30.65;34.27
73171;BME280;61381;50.118;19.962;2023-07-09T16:23:33;98784.09;;;30.54;34.58
73171;BME280;61381;50.118;19.962;2023-07-09T16:28:34;98771.34;;;30.26;36.53
73171;BME280;61381;50.118;19.962;2023-07-09T16:33:37;98777.16;;;29.93;37.25
73171;BME280;61381;50.118;19.962;2023-07-09T16:38:38;98786.06;;;29.66;37.16
73171;BME280;61381;50.118;19.962;2023-07-09T16:43:39;98782.75;;;29.26;39.94
73171;BME280;61381;50.118;19.962;2023-07-09T16:48:41;98787.97;;;29.06;38.87
73171;BME280;61381;50.118;19.962;2023-07-09T16:53:42;98788.50;;;28.72;39.83
73171;BME280;61381;50.118;19.962;2023-07-09T16:58:43;98789.31;;;28.66;40.23
73171;BME280;61381;50.118;19.962;2023-07-09T17:03:45;98798.38;;;28.48;39.81
73171;BME280;61381;50.118;19.962;2023-07-09T17:08:46;98794.09;;;28.40;41.79
73171;BME280;61381;50.118;19.962;2023-07-09T17:13:47;98798.81;;;28.25;42.65
73171;BME280;61381;50.118;19.962;2023-07-09T17:18:50;98801.19;;;28.16;43.88
73171;BME280;61381;50.118;19.962;2023-07-09T17:23:51;98794.94;;;28.04;44.44
73171;BME280;61381;50.118;19.962;2023-07-09T17:28:52;98805.94;;;27.97;43.73
73171;BME280;61381;50.118;19.962;2023-07-09T17:33:54;98794.50;;;27.88;45.60
73171;BME280;61381;50.118;19.962;2023-07-09T17:38:55;98802.38;;;27.86;46.30
73171;BME280;61381;50.118;19.962;2023-07-09T17:43:56;98803.53;;;27.67;47.27
73171;BME280;61381;50.118;19.962;2023-07-09T17:48:58;98802.72;;;27.45;47.76
73171;BME280;61381;50.118;19.962;2023-07-09T17:53:59;98803.84;;;27.29;48.93
73171;BME280;61381;50.118;19.962;2023-07-09T17:59:00;98800.25;;;27.11;50.27
73171;BME280;61381;50.118;19.962;2023-07-09T18:04:12;98793.47;;;26.86;51.00
73171;BME280;61381;50.118;19.962;2023-07-09T18:09:16;98802.00;;;26.63;54.43
73171;BME280;61381;50.118;19.962;2023-07-09T18:14:19;98795.16;;;26.36;55.08
73171;BME280;61381;50.118;19.962;2023-07-09T18:19:24;98796.50;;;26.04;56.84
73171;BME280;61381;50.118;19.962;2023-07-09T18:24:26;98790.81;;;25.83;57.03
73171;BME280;61381;50.118;19.962;2023-07-09T18:29:30;98797.19;;;25.53;59.17
73171;BME280;61381;50.118;19.962;2023-07-09T18:34:33;98796.84;;;25.20;59.01
73171;BME280;61381;50.118;19.962;2023-07-09T18:39:34;98805.94;;;24.94;61.78
73171;BME280;61381;50.118;19.962;2023-07-09T18:44:35;98805.16;;;24.63;71.21
73171;BME280;61381;50.118;19.962;2023-07-09T18:49:37;98810.56;;;24.06;75.21
73171;BME280;61381;50.118;19.962;2023-07-09T18:54:39;98808.34;;;23.69;64.92
73171;BME280;61381;50.118;19.962;2023-07-09T18:59:40;98821.97;;;23.65;62.61
73171;BME280;61381;50.118;19.962;2023-07-09T19:04:43;98813.38;;;23.44;77.52
73171;BME280;61381;50.118;19.962;2023-07-09T19:09:45;98810.72;;;22.89;88.49
73171;BME280;61381;50.118;19.962;2023-07-09T19:14:46;98817.91;;;22.42;94.27
73171;BME280;61381;50.118;19.962;2023-07-09T19:19:48;98813.75;;;22.00;97.04
73171;BME280;61381;50.118;19.962;2023-07-09T19:24:49;98816.38;;;21.65;94.63
73171;BME280;61381;50.118;19.962;2023-07-09T19:29:51;98819.06;;;21.20;92.43
73171;BME280;61381;50.118;19.962;2023-07-09T19:34:54;98811.47;;;20.85;86.81
73171;BME280;61381;50.118;19.962;2023-07-09T19:39:55;98821.28;;;20.74;84.26
73171;BME280;61381;50.118;19.962;2023-07-09T19:44:56;98819.94;;;20.68;92.28
73171;BME280;61381;50.118;19.962;2023-07-09T19:50:00;98813.47;;;20.36;86.20
73171;BME280;61381;50.118;19.962;2023-07-09T19:55:15;98832.97;;;20.38;81.28
73171;BME280;61381;50.118;19.962;2023-07-09T20:00:19;98834.22;;;20.53;84.65
73171;BME280;61381;50.118;19.962;2023-07-09T20:05:22;98830.69;;;20.64;78.72
73171;BME280;61381;50.118;19.962;2023-07-09T20:10:24;98826.59;;;20.83;76.94
73171;BME280;61381;50.118;19.962;2023-07-09T20:15:27;98824.28;;;20.97;75.50
73171;BME280;61381;50.118;19.962;2023-07-09T20:20:29;98833.00;;;21.03;74.26
73171;BME280;61381;50.118;19.962;2023-07-09T20:25:30;98837.59;;;21.27;72.59
73171;BME280;61381;50.118;19.962;2023-07-09T20:30:31;98844.53;;;21.41;71.32
73171;BME280;61381;50.118;19.962;2023-07-09T20:35:34;98835.03;;;21.34;72.09
73171;BME280;61381;50.118;19.962;2023-07-09T20:40:35;98849.81;;;21.33;71.78
73171;BME280;61381;50.118;19.962;2023-07-09T20:45:36;98858.22;;;21.28;72.39
73171;BME280;61381;50.118;19.962;2023-07-09T20:50:38;98870.06;;;21.20;72.04
73171;BME280;61381;50.118;19.962;2023-07-09T20:55:40;98881.78;;;21.08;73.32
73171;BME280;61381;50.118;19.962;2023-07-09T21:00:42;98873.91;;;20.91;74.03
73171;BME280;61381;50.118;19.962;2023-07-09T21:05:45;98877.00;;;20.77;74.76
73171;BME280;61381;50.118;19.962;2023-07-09T21:10:47;98881.75;;;20.67;74.92
73171;BME280;61381;50.118;19.962;2023-07-09T21:15:51;98882.88;;;20.54;75.23
73171;BME280;61381;50.118;19.962;2023-07-09T21:20:53;98882.97;;;20.45;74.38
73171;BME280;61381;50.118;19.962;2023-07-09T21:25:56;98886.59;;;20.12;75.56
73171;BME280;61381;50.118;19.962;2023-07-09T21:30:57;98891.22;;;20.00;76.04
73171;BME280;61381;50.118;19.962;2023-07-09T21:35:59;98884.03;;;19.83;76.80
73171;BME280;61381;50.118;19.962;2023-07-09T21:41:01;98881.66;;;19.60;79.00
73171;BME280;61381;50.118;19.962;2023-07-09T21:46:02;98881.09;;;19.54;78.15
73171;BME280;61381;50.118;19.962;2023-07-09T21:51:08;98887.78;;;19.57;77.66
73171;BME280;61381;50.118;19.962;2023-07-09T21:56:10;98889.47;;;19.61;76.52
73171;BME280;61381;50.118;19.962;2023-07-09T22:01:14;98899.84;;;19.47;78.15
73171;BME280;61381;50.118;19.962;2023-07-09T22:06:17;98898.19;;;19.34;77.20
73171;BME280;61381;50.118;19.962;2023-07-09T22:11:22;98905.97;;;19.23;77.16
73171;BME280;61381;50.118;19.962;2023-07-09T22:16:24;98909.81;;;19.22;76.97
73171;BME280;61381;50.118;19.962;2023-07-09T22:21:35;98914.06;;;19.32;76.16
73171;BME280;61381;50.118;19.962;2023-07-09T22:26:37;98911.66;;;19.09;79.91
73171;BME280;61381;50.118;19.962;2023-07-09T22:31:39;98909.28;;;18.78;84.25
73171;BME280;61381;50.118;19.962;2023-07-09T22:36:42;98920.00;;;18.35;88.46
73171;BME280;61381;50.118;19.962;2023-07-09T22:41:45;98908.97;;;17.85;98.73
73171;BME280;61381;50.118;19.962;2023-07-09T22:46:46;98902.50;;;17.42;100.00
73171;BME280;61381;50.118;19.962;2023-07-09T22:51:49;98903.91;;;16.96;100.00
73171;BME280;61381;50.118;19.962;2023-07-09T22:56:50;98906.38;;;16.74;100.00
73171;BME280;61381;50.118;19.962;2023-07-09T23:01:51;98916.84;;;16.67;100.00
73171;BME280;61381;50.118;19.962;2023-07-09T23:06:53;98910.09;;;16.47;100.00
73171;BME280;61381;50.118;19.962;2023-07-09T23:11:54;98916.56;;;16.29;100.00
73171;BME280;61381;50.118;19.962;2023-07-09T23:16:55;98909.63;;;16.05;100.00
73171;BME280;61381;50.118;19.962;2023-07-09T23:21:57;98911.28;;;15.92;100.00
73171;BME280;61381;50.118;19.962;2023-07-09T23:26:58;98905.75;;;15.75;100.00
73171;BME280;61381;50.118;19.962;2023-07-09T23:31:59;98903.34;;;15.50;100.00
73171;BME280;61381;50.118;19.962;2023-07-09T23:37:02;98909.66;;;15.46;100.00
73171;BME280;61381;50.118;19.962;2023-07-09T23:42:03;98896.59;;;15.39;100.00
73171;BME280;61381;50.118;19.962;2023-07-09T23:47:08;98896.47;;;15.44;100.00
73171;BME280;61381;50.118;19.962;2023-07-09T23:52:11;98898.97;;;15.18;100.00
73171;BME280;61381;50.118;19.962;2023-07-09T23:57:12;98888.16;;;15.18;100.00
